createdAt,value
2016-04-01T00:00:16.376Z,1012.35
2016-04-01T00:01:16.316Z,1012.34
2016-04-01T00:02:19.287Z,1012.35
2016-04-01T00:03:19.259Z,1012.33
2016-04-01T00:04:16.183Z,1012.36
2016-04-01T00:05:16.155Z,1012.4
2016-04-01T00:06:19.110Z,1012.42
2016-04-01T00:07:16.066Z,1012.42
2016-04-01T00:08:16.006Z,1012.44
2016-04-01T00:09:15.963Z,1012.55
2016-04-01T00:10:15.918Z,1012.55
2016-04-01T00:11:15.874Z,1012.53
2016-04-01T00:12:15.830Z,1012.53
2016-04-01T00:13:15.786Z,1012.53
2016-04-01T00:14:15.741Z,1012.52
2016-04-01T00:15:15.697Z,1012.56
2016-04-01T00:16:18.652Z,1012.51
2016-04-01T00:17:15.610Z,1012.5
2016-04-01T00:18:18.580Z,1012.5
2016-04-01T00:19:15.504Z,1012.47
2016-04-01T00:20:15.461Z,1012.43
2016-04-01T00:21:15.432Z,1012.42
2016-04-01T00:22:18.387Z,1012.41
2016-04-01T00:23:15.329Z,1012.39
2016-04-01T00:24:15.299Z,1012.44
2016-04-01T00:25:15.240Z,1012.4
2016-04-01T00:26:15.196Z,1012.4
2016-04-01T00:27:15.151Z,1012.33
2016-04-01T00:28:15.107Z,1012.33
2016-04-01T00:29:15.062Z,1012.26
2016-04-01T00:30:15.034Z,1012.23
2016-04-01T00:31:14.990Z,1012.23
2016-04-01T00:32:14.945Z,1012.21
2016-04-01T00:33:14.887Z,1012.24
2016-04-01T00:34:17.858Z,1012.3
2016-04-01T00:35:14.797Z,1012.34
2016-04-01T00:36:17.770Z,1012.34
2016-04-01T00:37:17.709Z,1012.37
2016-04-01T00:38:17.852Z,1012.41
2016-04-01T00:39:14.622Z,1012.41
2016-04-01T00:40:14.561Z,1012.41
2016-04-01T00:41:14.533Z,1012.44
2016-04-01T00:42:14.473Z,1012.48
2016-04-01T00:43:17.429Z,1012.49
2016-04-01T00:44:14.432Z,1012.5
2016-04-01T00:45:14.340Z,1012.52
2016-04-01T00:46:14.296Z,1012.56
2016-04-01T00:47:17.268Z,1012.58
2016-04-01T00:48:14.442Z,1012.61
2016-04-01T00:49:14.163Z,1012.64
2016-04-01T00:50:17.135Z,1012.64
2016-04-01T00:51:14.076Z,1012.65
2016-04-01T00:52:14.032Z,1012.68
2016-04-01T00:53:14.190Z,1012.69
2016-04-01T00:54:13.942Z,1012.66
2016-04-01T00:55:13.899Z,1012.68
2016-04-01T00:56:13.840Z,1012.68
2016-04-01T00:57:13.795Z,1012.67
2016-04-01T00:58:13.766Z,1012.67
2016-04-01T00:59:16.722Z,1012.68
2016-04-01T01:00:16.678Z,1012.71
2016-04-01T01:01:16.634Z,1012.66
2016-04-01T01:02:22.574Z,1012.71
2016-04-01T01:03:16.545Z,1012.77
2016-04-01T01:04:13.486Z,1012.82
2016-04-01T01:05:13.442Z,1012.9
2016-04-01T01:06:13.397Z,1012.98
2016-04-01T01:07:13.353Z,1013.01
2016-04-01T01:08:13.308Z,1012.97
2016-04-01T01:09:13.264Z,1013.05
2016-04-01T01:10:13.205Z,1013.05
2016-04-01T01:11:13.176Z,1013.1
2016-04-01T01:12:16.163Z,1013.1
2016-04-01T01:13:16.119Z,1013.08
2016-04-01T01:14:13.231Z,1013.1
2016-04-01T01:15:12.999Z,1013.09
2016-04-01T01:16:12.939Z,1013.11
2016-04-01T01:17:12.896Z,1013.15
2016-04-01T01:18:15.851Z,1013.11
2016-04-01T01:19:12.807Z,1013.2
2016-04-01T01:20:12.763Z,1013.21
2016-04-01T01:21:12.718Z,1013.22
2016-04-01T01:22:12.674Z,1013.24
2016-04-01T01:23:12.630Z,1013.3
2016-04-01T01:24:12.585Z,1013.31
2016-04-01T01:25:12.542Z,1013.24
2016-04-01T01:26:12.498Z,1013.31
2016-04-01T01:27:12.437Z,1013.26
2016-04-01T01:28:15.612Z,1013.26
2016-04-01T01:29:12.349Z,1013.25
2016-04-01T01:30:15.321Z,1013.23
2016-04-01T01:31:15.276Z,1013.24
2016-04-01T01:32:12.217Z,1013.23
2016-04-01T01:33:15.204Z,1013.31
2016-04-01T01:34:12.128Z,1013.36
2016-04-01T01:35:12.084Z,1013.35
2016-04-01T01:36:12.039Z,1013.41
2016-04-01T01:37:11.995Z,1013.39
2016-04-01T01:38:11.952Z,1013.39
2016-04-01T01:39:11.892Z,1013.42
2016-04-01T01:40:11.847Z,1013.36
2016-04-01T01:41:11.803Z,1013.37
2016-04-01T01:42:11.963Z,1013.38
2016-04-01T01:43:11.715Z,1013.41
2016-04-01T01:44:11.874Z,1013.42
2016-04-01T01:45:11.626Z,1013.42
2016-04-01T01:46:11.583Z,1013.46
2016-04-01T01:47:11.538Z,1013.44
2016-04-01T01:48:11.494Z,1013.43
2016-04-01T01:49:11.450Z,1013.45
2016-04-01T01:50:11.405Z,1013.46
2016-04-01T01:51:11.362Z,1013.44
2016-04-01T01:52:11.521Z,1013.47
2016-04-01T01:53:11.257Z,1013.49
2016-04-01T01:54:11.229Z,1013.54
2016-04-01T01:55:11.201Z,1013.62
2016-04-01T01:56:11.126Z,1013.67
2016-04-01T01:57:11.096Z,1013.68
2016-04-01T01:58:14.052Z,1013.7
2016-04-01T01:59:10.993Z,1013.74
2016-04-01T02:00:10.948Z,1013.76
2016-04-01T02:01:10.904Z,1013.78
2016-04-01T02:02:10.859Z,1013.8
2016-04-01T02:03:10.815Z,1013.82
2016-04-01T02:04:10.772Z,1013.86
2016-04-01T02:05:10.727Z,1013.85
2016-04-01T02:06:10.698Z,1013.86
2016-04-01T02:07:13.623Z,1013.88
2016-04-01T02:08:10.600Z,1013.88
2016-04-01T02:09:13.555Z,1013.88
2016-04-01T02:10:13.511Z,1013.88
2016-04-01T02:11:10.467Z,1013.9
2016-04-01T02:12:10.408Z,1013.88
2016-04-01T02:13:10.363Z,1013.89
2016-04-01T02:14:10.319Z,1013.91
2016-04-01T02:15:10.274Z,1013.91
2016-04-01T02:16:10.230Z,1013.97
2016-04-01T02:17:10.171Z,1013.94
2016-04-01T02:18:13.143Z,1014.01
2016-04-01T02:19:13.099Z,1014.04
2016-04-01T02:20:13.054Z,1014.08
2016-04-01T02:21:13.025Z,1014.1
2016-04-01T02:22:09.949Z,1014.06
2016-04-01T02:23:09.921Z,1014.06
2016-04-01T02:24:12.862Z,1014.1
2016-04-01T02:25:12.817Z,1014.09
2016-04-01T02:26:09.773Z,1014.1
2016-04-01T02:27:09.729Z,1014.11
2016-04-01T02:28:09.685Z,1014.09
2016-04-01T02:29:09.844Z,1014.14
2016-04-01T02:30:09.596Z,1014.11
2016-04-01T02:31:12.553Z,1014.11
2016-04-01T02:32:09.508Z,1014.09
2016-04-01T02:33:12.464Z,1014.13
2016-04-01T02:34:09.419Z,1014.08
2016-04-01T02:35:12.359Z,1014.09
2016-04-01T02:36:12.316Z,1014.11
2016-04-01T02:37:09.475Z,1014.09
2016-04-01T02:38:09.431Z,1014.16
2016-04-01T02:39:09.183Z,1014.15
2016-04-01T02:40:09.139Z,1014.19
2016-04-01T02:41:09.125Z,1014.19
2016-04-01T02:42:09.113Z,1014.2
2016-04-01T02:43:09.005Z,1014.22
2016-04-01T02:44:11.962Z,1014.21
2016-04-01T02:45:08.902Z,1014.19
2016-04-01T02:46:08.873Z,1014.21
2016-04-01T02:47:08.829Z,1014.19
2016-04-01T02:48:08.769Z,1014.22
2016-04-01T02:49:08.725Z,1014.19
2016-04-01T02:50:11.681Z,1014.14
2016-04-01T02:51:08.637Z,1014.2
2016-04-01T02:52:08.593Z,1014.13
2016-04-01T02:53:08.549Z,1014.15
2016-04-01T02:54:08.708Z,1014.13
2016-04-01T02:55:08.460Z,1014.1
2016-04-01T02:56:08.401Z,1014.12
2016-04-01T02:57:11.388Z,1014.12
2016-04-01T02:58:08.515Z,1014.09
2016-04-01T02:59:08.268Z,1014.11
2016-04-01T03:00:08.224Z,1014.1
2016-04-01T03:01:08.195Z,1014.07
2016-04-01T03:02:11.151Z,1014.06
2016-04-01T03:03:11.107Z,1014.06
2016-04-01T03:04:08.047Z,1014.09
2016-04-01T03:05:08.003Z,1014.09
2016-04-01T03:06:10.989Z,1014.1
2016-04-01T03:07:07.915Z,1014.07
2016-04-01T03:08:07.870Z,1014.13
2016-04-01T03:09:07.810Z,1014.1
2016-04-01T03:10:10.783Z,1014.07
2016-04-01T03:11:07.738Z,1014.07
2016-04-01T03:12:10.678Z,1014.12
2016-04-01T03:13:10.634Z,1014.16
2016-04-01T03:14:10.605Z,1014.13
2016-04-01T03:15:10.561Z,1014.16
2016-04-01T03:16:07.704Z,1014.12
2016-04-01T03:17:07.457Z,1014.15
2016-04-01T03:18:07.412Z,1014.15
2016-04-01T03:19:07.368Z,1014.15
2016-04-01T03:20:07.324Z,1014.08
2016-04-01T03:21:07.280Z,1014.06
2016-04-01T03:22:07.236Z,1014.01
2016-04-01T03:23:07.192Z,1013.99
2016-04-01T03:24:07.132Z,1013.99
2016-04-01T03:25:10.104Z,1013.98
2016-04-01T03:26:07.043Z,1013.95
2016-04-01T03:27:06.999Z,1013.95
2016-04-01T03:28:06.956Z,1013.88
2016-04-01T03:29:06.912Z,1013.85
2016-04-01T03:30:06.867Z,1013.86
2016-04-01T03:31:06.823Z,1013.81
2016-04-01T03:32:06.763Z,1013.79
2016-04-01T03:33:06.720Z,1013.82
2016-04-01T03:34:06.689Z,1013.85
2016-04-01T03:35:06.645Z,1013.88
2016-04-01T03:36:06.586Z,1013.93
2016-04-01T03:37:06.558Z,1013.97
2016-04-01T03:38:06.498Z,1014
2016-04-01T03:39:06.469Z,1013.98
2016-04-01T03:40:06.409Z,1013.98
2016-04-01T03:41:06.366Z,1013.96
2016-04-01T03:42:06.321Z,1013.95
2016-04-01T03:43:06.277Z,1013.97
2016-04-01T03:44:09.233Z,1013.97
2016-04-01T03:45:06.189Z,1014
2016-04-01T03:46:06.144Z,1013.98
2016-04-01T03:47:06.100Z,1014.03
2016-04-01T03:48:09.056Z,1014
2016-04-01T03:49:05.996Z,1013.98
2016-04-01T03:50:05.952Z,1014.01
2016-04-01T03:51:05.908Z,1014
2016-04-01T03:52:08.863Z,1014.04
2016-04-01T03:53:05.819Z,1014.07
2016-04-01T03:54:05.776Z,1014.19
2016-04-01T03:55:05.732Z,1014.2
2016-04-01T03:56:05.687Z,1014.24
2016-04-01T03:57:05.642Z,1014.26
2016-04-01T03:58:05.598Z,1014.28
2016-04-01T03:59:08.554Z,1014.28
2016-04-01T04:00:08.509Z,1014.3
2016-04-01T04:01:05.465Z,1014.32
2016-04-01T04:02:05.406Z,1014.32
2016-04-01T04:03:05.362Z,1014.36
2016-04-01T04:04:05.318Z,1014.35
2016-04-01T04:05:05.273Z,1014.4
2016-04-01T04:06:05.229Z,1014.43
2016-04-01T04:07:05.186Z,1014.4
2016-04-01T04:08:05.141Z,1014.45
2016-04-01T04:09:05.097Z,1014.5
2016-04-01T04:10:05.053Z,1014.5
2016-04-01T04:11:08.008Z,1014.52
2016-04-01T04:12:05.152Z,1014.57
2016-04-01T04:13:04.905Z,1014.6
2016-04-01T04:14:04.875Z,1014.62
2016-04-01T04:15:04.816Z,1014.66
2016-04-01T04:16:04.788Z,1014.75
2016-04-01T04:17:04.759Z,1014.79
2016-04-01T04:18:04.683Z,1014.81
2016-04-01T04:19:04.639Z,1014.85
2016-04-01T04:20:04.596Z,1014.86
2016-04-01T04:21:07.566Z,1014.88
2016-04-01T04:22:04.491Z,1014.93
2016-04-01T04:23:04.447Z,1014.93
2016-04-01T04:24:04.419Z,1015.02
2016-04-01T04:25:04.359Z,1015.03
2016-04-01T04:26:07.330Z,1015.09
2016-04-01T04:27:04.271Z,1015.16
2016-04-01T04:28:04.227Z,1015.18
2016-04-01T04:29:04.182Z,1015.21
2016-04-01T04:30:04.138Z,1015.23
2016-04-01T04:31:04.079Z,1015.21
2016-04-01T04:32:04.049Z,1015.21
2016-04-01T04:33:04.006Z,1015.21
2016-04-01T04:34:03.945Z,1015.19
2016-04-01T04:35:06.917Z,1015.21
2016-04-01T04:36:03.857Z,1015.22
2016-04-01T04:37:03.828Z,1015.24
2016-04-01T04:38:03.769Z,1015.26
2016-04-01T04:39:03.725Z,1015.29
2016-04-01T04:40:03.680Z,1015.26
2016-04-01T04:41:03.636Z,1015.22
2016-04-01T04:42:03.592Z,1015.24
2016-04-01T04:43:03.548Z,1015.31
2016-04-01T04:44:03.504Z,1015.37
2016-04-01T04:45:03.459Z,1015.35
2016-04-01T04:46:03.400Z,1015.43
2016-04-01T04:47:06.355Z,1015.44
2016-04-01T04:48:03.311Z,1015.38
2016-04-01T04:49:03.267Z,1015.42
2016-04-01T04:50:03.222Z,1015.54
2016-04-01T04:51:03.179Z,1015.56
2016-04-01T04:52:06.135Z,1015.54
2016-04-01T04:53:03.090Z,1015.53
2016-04-01T04:54:03.046Z,1015.58
2016-04-01T04:55:02.986Z,1015.56
2016-04-01T04:56:02.942Z,1015.55
2016-04-01T04:57:02.914Z,1015.55
2016-04-01T04:58:02.869Z,1015.55
2016-04-01T04:59:02.825Z,1015.48
2016-04-01T05:00:02.766Z,1015.49
2016-04-01T05:01:02.721Z,1015.51
2016-04-01T05:02:02.676Z,1015.52
2016-04-01T05:03:02.837Z,1015.52
2016-04-01T05:04:02.589Z,1015.53
2016-04-01T05:05:02.545Z,1015.55
2016-04-01T05:06:02.500Z,1015.55
2016-04-01T05:07:02.440Z,1015.61
2016-04-01T05:08:02.411Z,1015.6
2016-04-01T05:09:02.352Z,1015.61
2016-04-01T05:10:02.308Z,1015.63
2016-04-01T05:11:05.264Z,1015.65
2016-04-01T05:12:02.219Z,1015.71
2016-04-01T05:13:02.176Z,1015.72
2016-04-01T05:14:02.131Z,1015.71
2016-04-01T05:15:05.086Z,1015.76
2016-04-01T05:16:05.043Z,1015.76
2016-04-01T05:17:01.999Z,1015.79
2016-04-01T05:18:01.954Z,1015.82
2016-04-01T05:19:01.894Z,1015.81
2016-04-01T05:20:01.850Z,1015.8
2016-04-01T05:21:01.806Z,1015.79
2016-04-01T05:22:01.763Z,1015.8
2016-04-01T05:23:04.733Z,1015.8
2016-04-01T05:24:10.689Z,1015.81
2016-04-01T05:25:01.630Z,1015.86
2016-04-01T05:26:01.586Z,1015.84
2016-04-01T05:27:01.541Z,1015.89
2016-04-01T05:28:01.699Z,1015.89
2016-04-01T05:29:01.452Z,1015.92
2016-04-01T05:30:01.409Z,1015.93
2016-04-01T05:31:01.552Z,1015.96
2016-04-01T05:32:01.304Z,1015.97
2016-04-01T05:33:01.260Z,1015.98
2016-04-01T05:34:01.216Z,1015.99
2016-04-01T05:35:01.172Z,1016.04
2016-04-01T05:36:01.128Z,1016.09
2016-04-01T05:37:01.068Z,1016.09
2016-04-01T05:38:01.024Z,1016.08
2016-04-01T05:39:00.996Z,1016.11
2016-04-01T05:40:00.936Z,1016.11
2016-04-01T05:41:00.891Z,1016.09
2016-04-01T05:42:01.051Z,1016.1
2016-04-01T05:43:00.819Z,1016.09
2016-04-01T05:44:00.790Z,1016.1
2016-04-01T05:45:00.714Z,1016.09
2016-04-01T05:46:00.670Z,1016.07
2016-04-01T05:47:00.626Z,1016.05
2016-04-01T05:48:00.583Z,1016.07
2016-04-01T05:49:03.522Z,1016.07
2016-04-01T05:50:00.477Z,1016.09
2016-04-01T05:51:00.433Z,1016.11
2016-04-01T05:52:00.405Z,1016.12
2016-04-01T05:53:00.346Z,1016.14
2016-04-01T05:54:00.317Z,1016.13
2016-04-01T05:55:00.257Z,1016.17
2016-04-01T05:56:00.213Z,1016.15
2016-04-01T05:57:00.169Z,1016.2
2016-04-01T05:58:03.155Z,1016.18
2016-04-01T05:59:00.080Z,1016.19
2016-04-01T06:00:03.036Z,1016.26
2016-04-01T06:01:00.085Z,1016.21
2016-04-01T06:01:59.949Z,1016.26
2016-04-01T06:02:59.903Z,1016.2
2016-04-01T06:03:59.890Z,1016.23
2016-04-01T06:04:59.799Z,1016.22
2016-04-01T06:05:59.755Z,1016.22
2016-04-01T06:06:59.712Z,1016.23
2016-04-01T06:07:59.671Z,1016.23
2016-04-01T06:08:59.611Z,1016.27
2016-04-01T06:09:59.567Z,1016.3
2016-04-01T06:11:02.727Z,1016.32
2016-04-01T06:11:59.479Z,1016.34
2016-04-01T06:13:02.435Z,1016.33
2016-04-01T06:13:59.391Z,1016.37
2016-04-01T06:14:59.347Z,1016.35
2016-04-01T06:15:59.302Z,1016.35
2016-04-01T06:16:59.258Z,1016.34
2016-04-01T06:17:59.213Z,1016.31
2016-04-01T06:18:59.154Z,1016.32
2016-04-01T06:19:59.110Z,1016.39
2016-04-01T06:20:59.081Z,1016.44
2016-04-01T06:21:59.020Z,1016.46
2016-04-01T06:22:58.976Z,1016.51
2016-04-01T06:23:59.137Z,1016.6
2016-04-01T06:25:01.904Z,1016.66
2016-04-01T06:26:01.844Z,1016.65
2016-04-01T06:26:58.784Z,1016.71
2016-04-01T06:27:58.740Z,1016.74
2016-04-01T06:28:58.712Z,1016.74
2016-04-01T06:29:58.667Z,1016.79
2016-04-01T06:30:58.608Z,1016.76
2016-04-01T06:31:58.564Z,1016.69
2016-04-01T06:32:58.520Z,1016.72
2016-04-01T06:33:58.476Z,1016.73
2016-04-01T06:34:58.431Z,1016.74
2016-04-01T06:35:58.387Z,1016.75
2016-04-01T06:36:58.375Z,1016.71
2016-04-01T06:37:58.283Z,1016.68
2016-04-01T06:38:58.239Z,1016.69
2016-04-01T06:39:58.195Z,1016.7
2016-04-01T06:40:58.150Z,1016.71
2016-04-01T06:41:58.106Z,1016.73
2016-04-01T06:42:58.077Z,1016.75
2016-04-01T06:43:58.018Z,1016.74
2016-04-01T06:45:00.974Z,1016.78
2016-04-01T06:45:57.960Z,1016.81
2016-04-01T06:46:57.869Z,1016.8
2016-04-01T06:47:57.841Z,1016.8
2016-04-01T06:48:57.782Z,1016.84
2016-04-01T06:49:57.738Z,1016.87
2016-04-01T06:50:57.693Z,1016.95
2016-04-01T06:51:57.649Z,1016.92
2016-04-01T06:52:57.605Z,1017.02
2016-04-01T06:53:57.560Z,1017.01
2016-04-01T06:54:57.516Z,1017.05
2016-04-01T06:56:00.473Z,1017.07
2016-04-01T06:56:57.412Z,1017.05
2016-04-01T06:57:57.384Z,1017.11
2016-04-01T06:58:57.323Z,1017.07
2016-04-01T06:59:57.295Z,1017.06
2016-04-01T07:00:57.251Z,1017.02
2016-04-01T07:01:57.192Z,1017.05
2016-04-01T07:02:57.162Z,1017.07
2016-04-01T07:03:57.103Z,1017.09
2016-04-01T07:04:57.059Z,1017.08
2016-04-01T07:05:57.015Z,1017.07
2016-04-01T07:06:59.970Z,1017.05
2016-04-01T07:07:56.925Z,1017.08
2016-04-01T07:08:59.897Z,1017.09
2016-04-01T07:09:56.822Z,1017.08
2016-04-01T07:10:59.794Z,1017.1
2016-04-01T07:11:56.750Z,1017.1
2016-04-01T07:12:56.705Z,1017.13
2016-04-01T07:13:56.849Z,1017.14
2016-04-01T07:14:56.601Z,1017.14
2016-04-01T07:15:56.557Z,1017.15
2016-04-01T07:16:56.513Z,1017.18
2016-04-01T07:17:56.469Z,1017.18
2016-04-01T07:18:56.425Z,1017.23
2016-04-01T07:19:56.381Z,1017.24
2016-04-01T07:20:56.321Z,1017.22
2016-04-01T07:21:56.276Z,1017.22
2016-04-01T07:22:56.232Z,1017.29
2016-04-01T07:23:56.189Z,1017.23
2016-04-01T07:24:56.143Z,1017.23
2016-04-01T07:25:56.099Z,1017.22
2016-04-01T07:26:56.056Z,1017.25
2016-04-01T07:27:56.012Z,1017.28
2016-04-01T07:28:58.967Z,1017.28
2016-04-01T07:29:55.924Z,1017.3
2016-04-01T07:30:55.879Z,1017.34
2016-04-01T07:31:55.819Z,1017.34
2016-04-01T07:32:58.776Z,1017.36
2016-04-01T07:33:55.731Z,1017.43
2016-04-01T07:34:55.687Z,1017.46
2016-04-01T07:35:55.643Z,1017.45
2016-04-01T07:36:55.599Z,1017.41
2016-04-01T07:37:55.539Z,1017.42
2016-04-01T07:38:55.510Z,1017.41
2016-04-01T07:39:55.482Z,1017.41
2016-04-01T07:40:55.406Z,1017.39
2016-04-01T07:41:55.581Z,1017.38
2016-04-01T07:42:55.318Z,1017.37
2016-04-01T07:43:55.276Z,1017.34
2016-04-01T07:44:55.215Z,1017.37
2016-04-01T07:45:55.153Z,1017.39
2016-04-01T07:46:55.094Z,1017.37
2016-04-01T07:47:55.081Z,1017.41
2016-04-01T07:48:54.974Z,1017.4
2016-04-01T07:49:54.924Z,1017.42
2016-04-01T07:50:55.015Z,1017.45
2016-04-01T07:51:54.918Z,1017.45
2016-04-01T07:52:54.776Z,1017.53
2016-04-01T07:53:54.727Z,1017.49
2016-04-01T07:54:54.663Z,1017.48
2016-04-01T07:55:54.820Z,1017.54
2016-04-01T07:56:54.571Z,1017.52
2016-04-01T07:57:54.526Z,1017.57
2016-04-01T07:58:54.511Z,1017.57
2016-04-01T07:59:54.419Z,1017.55
2016-04-01T08:00:54.499Z,1017.61
2016-04-01T08:01:57.908Z,1017.64
2016-04-01T08:02:54.285Z,1017.6
2016-04-01T08:03:55.880Z,1017.65
2016-04-01T08:04:54.195Z,1017.62
2016-04-01T08:05:54.150Z,1017.71
2016-04-01T08:06:54.121Z,1017.69
2016-04-01T08:07:57.061Z,1017.72
2016-04-01T08:08:54.032Z,1017.71
2016-04-01T08:09:53.988Z,1017.74
2016-04-01T08:10:53.928Z,1017.78
2016-04-01T08:11:53.884Z,1017.79
2016-04-01T08:12:54.027Z,1017.77
2016-04-01T08:13:53.780Z,1017.79
2016-04-01T08:14:53.735Z,1017.82
2016-04-01T08:15:53.692Z,1017.82
2016-04-01T08:16:53.648Z,1017.85
2016-04-01T08:17:53.650Z,1017.84
2016-04-01T08:18:53.559Z,1017.9
2016-04-01T08:19:53.515Z,1017.89
2016-04-01T08:20:53.470Z,1017.92
2016-04-01T08:21:53.426Z,1017.92
2016-04-01T08:22:53.397Z,1017.94
2016-04-01T08:23:53.322Z,1017.9
2016-04-01T08:24:53.278Z,1017.89
2016-04-01T08:25:53.219Z,1017.9
2016-04-01T08:26:53.189Z,1017.93
2016-04-01T08:27:56.348Z,1017.96
2016-04-01T08:28:53.304Z,1017.92
2016-04-01T08:29:53.058Z,1017.94
2016-04-01T08:30:52.997Z,1017.94
2016-04-01T08:31:52.953Z,1017.95
2016-04-01T08:32:52.925Z,1017.95
2016-04-01T08:33:52.865Z,1017.94
2016-04-01T08:34:52.821Z,1017.95
2016-04-01T08:35:52.792Z,1017.96
2016-04-01T08:36:52.732Z,1018.03
2016-04-01T08:37:52.688Z,1018.02
2016-04-01T08:38:52.847Z,1018
2016-04-01T08:39:52.599Z,1018.07
2016-04-01T08:40:52.540Z,1018.08
2016-04-01T08:41:52.496Z,1018.08
2016-04-01T08:42:52.451Z,1018.08
2016-04-01T08:43:52.407Z,1018.11
2016-04-01T08:44:52.363Z,1018.14
2016-04-01T08:45:52.319Z,1018.11
2016-04-01T08:46:52.275Z,1018.15
2016-04-01T08:47:52.231Z,1018.15
2016-04-01T08:48:52.202Z,1018.12
2016-04-01T08:49:52.126Z,1018.17
2016-04-01T08:50:52.098Z,1018.16
2016-04-01T08:51:52.054Z,1018.18
2016-04-01T08:52:51.995Z,1018.18
2016-04-01T08:53:51.965Z,1018.21
2016-04-01T08:54:51.922Z,1018.23
2016-04-01T08:55:51.862Z,1018.22
2016-04-01T08:56:51.817Z,1018.16
2016-04-01T08:57:51.773Z,1018.17
2016-04-01T08:58:51.728Z,1018.19
2016-04-01T08:59:51.685Z,1018.17
2016-04-01T09:00:51.656Z,1018.18
2016-04-01T09:01:51.580Z,1018.17
2016-04-01T09:02:51.552Z,1018.19
2016-04-01T09:03:51.492Z,1018.23
2016-04-01T09:04:51.510Z,1018.24
2016-04-01T09:05:51.404Z,1018.22
2016-04-01T09:06:51.344Z,1018.21
2016-04-01T09:07:51.503Z,1018.24
2016-04-01T09:08:51.255Z,1018.29
2016-04-01T09:09:51.212Z,1018.29
2016-04-01T09:10:54.168Z,1018.29
2016-04-01T09:11:54.123Z,1018.3
2016-04-01T09:12:51.079Z,1018.32
2016-04-01T09:13:51.019Z,1018.33
2016-04-01T09:14:54.021Z,1018.34
2016-04-01T09:15:50.931Z,1018.37
2016-04-01T09:16:50.918Z,1018.39
2016-04-01T09:17:50.843Z,1018.46
2016-04-01T09:18:50.814Z,1018.49
2016-04-01T09:19:50.817Z,1018.46
2016-04-01T09:20:50.710Z,1018.54
2016-04-01T09:21:53.697Z,1018.54
2016-04-01T09:22:50.622Z,1018.54
2016-04-01T09:23:53.624Z,1018.59
2016-04-01T09:24:50.533Z,1018.64
2016-04-01T09:25:50.489Z,1018.6
2016-04-01T09:26:50.538Z,1018.62
2016-04-01T09:27:50.385Z,1018.59
2016-04-01T09:28:50.341Z,1018.63
2016-04-01T09:29:50.499Z,1018.63
2016-04-01T09:30:50.252Z,1018.64
2016-04-01T09:31:50.239Z,1018.71
2016-04-01T09:32:50.164Z,1018.64
2016-04-01T09:33:50.105Z,1018.69
2016-04-01T09:34:50.061Z,1018.7
2016-04-01T09:35:50.172Z,1018.7
2016-04-01T09:36:49.988Z,1018.68
2016-04-01T09:37:49.928Z,1018.71
2016-04-01T09:38:49.899Z,1018.71
2016-04-01T09:39:49.855Z,1018.72
2016-04-01T09:40:49.795Z,1018.67
2016-04-01T09:41:49.751Z,1018.69
2016-04-01T09:42:49.707Z,1018.67
2016-04-01T09:43:49.663Z,1018.69
2016-04-01T09:44:52.618Z,1018.66
2016-04-01T09:45:49.574Z,1018.64
2016-04-01T09:46:49.687Z,1018.66
2016-04-01T09:47:52.674Z,1018.64
2016-04-01T09:48:49.427Z,1018.7
2016-04-01T09:49:49.382Z,1018.66
2016-04-01T09:50:49.323Z,1018.69
2016-04-01T09:51:49.293Z,1018.67
2016-04-01T09:52:49.265Z,1018.7
2016-04-01T09:53:49.830Z,1018.62
2016-04-01T09:54:52.145Z,1018.64
2016-04-01T09:55:49.132Z,1018.62
2016-04-01T09:56:49.057Z,1018.62
2016-04-01T09:57:49.091Z,1018.58
2016-04-01T09:58:48.984Z,1018.6
2016-04-01T09:59:48.925Z,1018.63
2016-04-01T10:00:48.880Z,1018.68
2016-04-01T10:01:48.836Z,1018.71
2016-04-01T10:02:48.775Z,1018.66
2016-04-01T10:03:48.732Z,1018.65
2016-04-01T10:04:48.703Z,1018.68
2016-04-01T10:05:51.658Z,1018.7
2016-04-01T10:06:48.708Z,1018.73
2016-04-01T10:07:48.555Z,1018.69
2016-04-01T10:08:48.527Z,1018.73
2016-04-01T10:09:48.483Z,1018.72
2016-04-01T10:10:48.892Z,1018.71
2016-04-01T10:11:48.379Z,1018.67
2016-04-01T10:12:48.553Z,1018.73
2016-04-01T10:13:48.602Z,1018.73
2016-04-01T10:14:48.230Z,1018.64
2016-04-01T10:15:48.201Z,1018.65
2016-04-01T10:16:48.157Z,1018.68
2016-04-01T10:17:48.098Z,1018.64
2016-04-01T10:18:48.210Z,1018.65
2016-04-01T10:19:48.010Z,1018.62
2016-04-01T10:20:47.965Z,1018.64
2016-04-01T10:21:47.906Z,1018.61
2016-04-01T10:22:47.861Z,1018.59
2016-04-01T10:23:47.832Z,1018.57
2016-04-01T10:24:47.773Z,1018.59
2016-04-01T10:25:47.806Z,1018.63
2016-04-01T10:26:47.684Z,1018.61
2016-04-01T10:27:47.655Z,1018.56
2016-04-01T10:28:47.612Z,1018.63
2016-04-01T10:29:47.552Z,1018.6
2016-04-01T10:30:47.508Z,1018.6
2016-04-01T10:31:47.463Z,1018.61
2016-04-01T10:32:47.622Z,1018.65
2016-04-01T10:33:47.359Z,1018.6
2016-04-01T10:34:47.316Z,1018.64
2016-04-01T10:35:47.287Z,1018.62
2016-04-01T10:36:47.212Z,1018.67
2016-04-01T10:37:47.245Z,1018.62
2016-04-01T10:38:47.139Z,1018.66
2016-04-01T10:39:47.094Z,1018.68
2016-04-01T10:40:47.066Z,1018.64
2016-04-01T10:41:50.005Z,1018.62
2016-04-01T10:42:46.962Z,1018.65
2016-04-01T10:43:46.902Z,1018.66
2016-04-01T10:44:46.874Z,1018.64
2016-04-01T10:45:46.846Z,1018.62
2016-04-01T10:46:46.769Z,1018.61
2016-04-01T10:47:46.741Z,1018.57
2016-04-01T10:48:46.696Z,1018.58
2016-04-01T10:49:46.637Z,1018.58
2016-04-01T10:50:46.639Z,1018.51
2016-04-01T10:51:46.548Z,1018.46
2016-04-01T10:52:46.489Z,1018.46
2016-04-01T10:53:46.460Z,1018.49
2016-04-01T10:54:46.401Z,1018.41
2016-04-01T10:55:46.372Z,1018.46
2016-04-01T10:56:46.328Z,1018.46
2016-04-01T10:57:46.330Z,1018.48
2016-04-01T10:58:46.223Z,1018.49
2016-04-01T10:59:46.179Z,1018.45
2016-04-01T11:00:46.136Z,1018.45
2016-04-01T11:01:46.184Z,1018.42
2016-04-01T11:02:46.031Z,1018.32
2016-04-01T11:03:46.065Z,1018.37
2016-04-01T11:04:45.958Z,1018.37
2016-04-01T11:05:45.914Z,1018.35
2016-04-01T11:06:45.869Z,1018.33
2016-04-01T11:07:45.834Z,1018.29
2016-04-01T11:08:45.775Z,1018.36
2016-04-01T11:09:45.731Z,1018.37
2016-04-01T11:10:45.671Z,1018.36
2016-04-01T11:11:45.658Z,1018.35
2016-04-01T11:12:45.598Z,1018.33
2016-04-01T11:13:45.553Z,1018.33
2016-04-01T11:14:45.494Z,1018.39
2016-04-01T11:15:45.450Z,1018.4
2016-04-01T11:16:45.422Z,1018.37
2016-04-01T11:17:45.378Z,1018.34
2016-04-01T11:18:45.317Z,1018.41
2016-04-01T11:19:45.274Z,1018.41
2016-04-01T11:20:45.229Z,1018.42
2016-04-01T11:21:45.388Z,1018.39
2016-04-01T11:22:48.359Z,1018.44
2016-04-01T11:23:45.096Z,1018.4
2016-04-01T11:24:45.037Z,1018.43
2016-04-01T11:25:45.008Z,1018.39
2016-04-01T11:26:44.964Z,1018.34
2016-04-01T11:27:45.029Z,1018.37
2016-04-01T11:28:45.063Z,1018.35
2016-04-01T11:29:44.815Z,1018.28
2016-04-01T11:30:44.771Z,1018.29
2016-04-01T11:31:44.726Z,1018.27
2016-04-01T11:32:44.683Z,1018.26
2016-04-01T11:33:44.701Z,1018.26
2016-04-01T11:34:44.673Z,1018.27
2016-04-01T11:35:44.567Z,1018.2
2016-04-01T11:36:44.787Z,1018.27
2016-04-01T11:37:44.462Z,1018.25
2016-04-01T11:38:44.417Z,1018.2
2016-04-01T11:39:44.389Z,1018.19
2016-04-01T11:40:44.330Z,1018.17
2016-04-01T11:41:44.286Z,1018.14
2016-04-01T11:42:44.257Z,1018.12
2016-04-01T11:43:44.213Z,1018.08
2016-04-01T11:44:44.153Z,1018.05
2016-04-01T11:45:44.109Z,1018.07
2016-04-01T11:46:44.252Z,1018.11
2016-04-01T11:47:44.036Z,1018.11
2016-04-01T11:48:43.991Z,1018.07
2016-04-01T11:49:43.933Z,1018.13
2016-04-01T11:50:43.888Z,1018.08
2016-04-01T11:51:43.844Z,1018.11
2016-04-01T11:52:43.800Z,1018.08
2016-04-01T11:53:43.786Z,1018.14
2016-04-01T11:54:43.711Z,1018.08
2016-04-01T11:55:43.666Z,1018
2016-04-01T11:56:43.623Z,1017.97
2016-04-01T11:57:43.578Z,1017.97
2016-04-01T11:58:43.534Z,1018.02
2016-04-01T11:59:43.490Z,1018
2016-04-01T12:00:43.446Z,1018.06
2016-04-01T12:01:43.402Z,1018.06
2016-04-01T12:02:43.357Z,1018.04
2016-04-01T12:03:46.329Z,1018.05
2016-04-01T12:04:43.269Z,1018.06
2016-04-01T12:05:43.225Z,1018.02
2016-04-01T12:06:43.181Z,1018.04
2016-04-01T12:07:43.121Z,1018.03